createdAt,value
2018-01-31T01:52:38.591Z,1024.94
2018-01-31T01:53:38.475Z,1024.96
2018-01-31T01:54:38.281Z,1024.94
2018-01-31T01:55:38.363Z,1024.93
2018-01-31T01:56:38.974Z,1024.91
2018-01-31T01:57:38.547Z,1024.87
2018-01-31T01:58:38.885Z,1024.87
2018-01-31T01:59:38.995Z,1024.84
2018-01-31T02:00:39.236Z,1024.85
2018-01-31T02:01:38.416Z,1024.79
2018-01-31T02:02:38.836Z,1024.79
2018-01-31T02:03:38.243Z,1024.75
2018-01-31T02:04:38.276Z,1024.76
2018-01-31T02:05:38.332Z,1024.71
2018-01-31T02:06:38.828Z,1024.72
2018-01-31T02:07:38.359Z,1024.69
2018-01-31T02:08:39.584Z,1024.67
2018-01-31T02:09:41.262Z,1024.65
2018-01-31T02:10:38.416Z,1024.64
2018-01-31T02:11:38.222Z,1024.57
2018-01-31T02:12:38.187Z,1024.55
2018-01-31T02:13:38.336Z,1024.55
2018-01-31T02:14:39.389Z,1024.56
2018-01-31T02:15:38.329Z,1024.51
2018-01-31T02:16:38.201Z,1024.5
2018-01-31T02:17:39.277Z,1024.47
2018-01-31T02:18:40.236Z,1024.43
2018-01-31T02:19:38.968Z,1024.37
2018-01-31T02:20:38.280Z,1024.33
2018-01-31T02:21:38.569Z,1024.35
2018-01-31T02:22:39.182Z,1024.32
2018-01-31T02:23:38.930Z,1024.32
2018-01-31T02:24:38.194Z,1024.31
2018-01-31T02:25:39.045Z,1024.29
2018-01-31T02:26:38.349Z,1024.23
2018-01-31T02:27:39.395Z,1024.21
2018-01-31T02:28:38.418Z,1024.22
2018-01-31T02:29:39.269Z,1024.2
2018-01-31T02:30:38.705Z,1024.2
2018-01-31T02:31:38.438Z,1024.21
2018-01-31T02:32:38.329Z,1024.18
2018-01-31T02:33:38.473Z,1024.19
2018-01-31T02:34:38.909Z,1024.18
2018-01-31T02:35:38.464Z,1024.13
2018-01-31T02:36:38.346Z,1024.11
2018-01-31T02:37:38.383Z,1024.08
2018-01-31T02:38:38.242Z,1024.06
2018-01-31T02:39:38.233Z,1024.01
2018-01-31T02:40:38.490Z,1024.03
2018-01-31T02:41:38.266Z,1023.96
2018-01-31T02:42:38.532Z,1023.97
2018-01-31T02:43:38.351Z,1023.98
2018-01-31T02:44:38.501Z,1023.95
2018-01-31T02:45:39.133Z,1023.91
2018-01-31T02:46:38.681Z,1023.92
2018-01-31T02:47:38.342Z,1023.9
2018-01-31T02:48:38.280Z,1023.86
2018-01-31T02:49:38.411Z,1023.84
2018-01-31T02:50:38.263Z,1023.82
2018-01-31T02:51:38.314Z,1023.78
2018-01-31T02:52:38.546Z,1023.77
2018-01-31T02:53:40.047Z,1023.74
2018-01-31T02:54:39.694Z,1023.7
2018-01-31T02:55:38.363Z,1023.71
2018-01-31T02:56:38.405Z,1023.72
2018-01-31T02:57:38.604Z,1023.64
2018-01-31T02:58:38.327Z,1023.63
2018-01-31T02:59:39.605Z,1023.63
2018-01-31T03:00:38.969Z,1023.59
2018-01-31T03:01:38.305Z,1023.56
2018-01-31T03:02:38.375Z,1023.54
2018-01-31T03:03:41.184Z,1023.44
2018-01-31T03:04:39.050Z,1023.39
2018-01-31T03:05:39.167Z,1023.34
2018-01-31T03:06:38.580Z,1023.28
2018-01-31T03:07:39.641Z,1023.22
2018-01-31T03:08:38.466Z,1023.18
2018-01-31T03:09:38.528Z,1023.22
2018-01-31T03:10:39.797Z,1023.27
2018-01-31T03:11:38.341Z,1023.33
2018-01-31T03:12:39.198Z,1023.35
2018-01-31T03:13:38.449Z,1023.31
2018-01-31T03:14:38.453Z,1023.3
2018-01-31T03:15:39.115Z,1023.3
2018-01-31T03:16:40.022Z,1023.28
2018-01-31T03:17:38.486Z,1023.25
2018-01-31T03:18:38.575Z,1023.24
2018-01-31T03:19:39.071Z,1023.23
2018-01-31T03:20:38.419Z,1023.16
2018-01-31T03:21:38.377Z,1023.18
2018-01-31T03:22:39.031Z,1023.17
2018-01-31T03:23:39.116Z,1023.13
2018-01-31T03:24:39.264Z,1023.13
2018-01-31T03:25:38.553Z,1023.15
2018-01-31T03:26:39.153Z,1023.17
2018-01-31T03:27:38.453Z,1023.15
2018-01-31T03:28:38.715Z,1023.14
2018-01-31T03:29:38.542Z,1023.16
2018-01-31T03:30:38.539Z,1023.18
2018-01-31T03:31:41.506Z,1023.18
2018-01-31T03:32:39.140Z,1023.12
2018-01-31T03:33:38.466Z,1023.18
2018-01-31T03:34:39.269Z,1023.16
2018-01-31T03:35:38.971Z,1023.19
2018-01-31T03:36:39.555Z,1023.11
2018-01-31T03:37:39.175Z,1023.15
2018-01-31T03:38:43.662Z,1023.15
2018-01-31T03:39:38.330Z,1023.09
2018-01-31T03:40:38.480Z,1023.08
2018-01-31T03:41:38.950Z,1023.11
2018-01-31T03:42:38.467Z,1023.08
2018-01-31T03:43:38.356Z,1023.1
2018-01-31T03:44:38.499Z,1023.1
2018-01-31T03:45:38.669Z,1023.1
2018-01-31T03:46:39.450Z,1023.07
2018-01-31T03:47:38.771Z,1023.04
2018-01-31T03:48:38.536Z,1023
2018-01-31T03:49:38.384Z,1022.98
2018-01-31T03:50:38.374Z,1022.97
2018-01-31T03:51:38.445Z,1022.94
2018-01-31T03:52:38.630Z,1022.94
2018-01-31T03:53:38.534Z,1022.94
2018-01-31T03:54:38.896Z,1022.91
2018-01-31T03:55:38.534Z,1022.88
2018-01-31T03:56:38.625Z,1022.9
2018-01-31T03:57:38.931Z,1022.87
2018-01-31T03:58:38.537Z,1022.88
2018-01-31T03:59:38.259Z,1022.93
2018-01-31T04:00:38.623Z,1022.89
2018-01-31T04:01:38.269Z,1022.88
2018-01-31T04:02:38.986Z,1022.9
2018-01-31T04:03:38.254Z,1022.86
2018-01-31T04:04:39.163Z,1022.85
2018-01-31T04:05:39.362Z,1022.83
2018-01-31T04:06:38.558Z,1022.81
2018-01-31T04:07:38.340Z,1022.82
2018-01-31T04:08:39.347Z,1022.85
2018-01-31T04:09:38.483Z,1022.76
2018-01-31T04:10:38.589Z,1022.75
2018-01-31T04:11:39.187Z,1022.76
2018-01-31T04:12:38.989Z,1022.8
2018-01-31T04:13:39.904Z,1022.8
2018-01-31T04:14:38.510Z,1022.77
2018-01-31T04:15:38.278Z,1022.72
2018-01-31T04:16:38.398Z,1022.75
2018-01-31T04:17:39.250Z,1022.74
2018-01-31T04:18:38.745Z,1022.68
2018-01-31T04:19:38.456Z,1022.66
2018-01-31T04:20:38.441Z,1022.72
2018-01-31T04:21:38.490Z,1022.64
2018-01-31T04:22:38.593Z,1022.65
2018-01-31T04:23:38.725Z,1022.66
2018-01-31T04:24:38.426Z,1022.65
2018-01-31T04:25:39.817Z,1022.59
2018-01-31T04:26:38.613Z,1022.59
2018-01-31T04:27:38.592Z,1022.55
2018-01-31T04:28:38.682Z,1022.56
2018-01-31T04:29:39.150Z,1022.55
2018-01-31T04:30:39.056Z,1022.5
2018-01-31T04:31:38.424Z,1022.51
2018-01-31T04:32:39.201Z,1022.47
2018-01-31T04:33:38.476Z,1022.47
2018-01-31T04:34:39.049Z,1022.45
2018-01-31T04:35:38.399Z,1022.43
2018-01-31T04:36:39.370Z,1022.42
2018-01-31T04:37:38.415Z,1022.36
2018-01-31T04:38:38.549Z,1022.35
2018-01-31T04:39:38.304Z,1022.27
2018-01-31T04:40:38.598Z,1022.26
2018-01-31T04:41:38.450Z,1022.26
2018-01-31T04:42:38.604Z,1022.2
2018-01-31T04:43:39.330Z,1022.19
2018-01-31T04:44:39.510Z,1022.18
2018-01-31T04:45:39.184Z,1022.12
2018-01-31T04:46:38.500Z,1022.14
2018-01-31T04:47:39.880Z,1022.08
2018-01-31T04:48:38.577Z,1022.07
2018-01-31T04:49:38.574Z,1022.02
2018-01-31T04:50:38.533Z,1022.02
2018-01-31T04:51:38.335Z,1021.99
2018-01-31T04:52:38.410Z,1022
2018-01-31T04:53:38.314Z,1021.98
2018-01-31T04:54:38.403Z,1021.94
2018-01-31T04:55:38.425Z,1021.93
2018-01-31T04:56:38.470Z,1021.9
2018-01-31T04:57:38.453Z,1021.9
2018-01-31T04:58:38.358Z,1021.94
2018-01-31T04:59:38.435Z,1021.93
2018-01-31T05:00:38.421Z,1021.94
2018-01-31T05:01:38.471Z,1021.89
2018-01-31T05:02:38.528Z,1021.9
2018-01-31T05:03:38.384Z,1021.9
2018-01-31T05:04:38.447Z,1021.88
2018-01-31T05:05:38.455Z,1021.89
2018-01-31T05:06:38.462Z,1021.87
2018-01-31T05:07:38.384Z,1021.94
2018-01-31T05:08:38.380Z,1021.91
2018-01-31T05:09:38.474Z,1021.9
2018-01-31T05:10:38.480Z,1021.89
2018-01-31T05:11:38.351Z,1021.88
2018-01-31T05:12:38.406Z,1021.83
2018-01-31T05:13:38.405Z,1021.75
2018-01-31T05:14:38.428Z,1021.77
2018-01-31T05:15:38.462Z,1021.77
2018-01-31T05:16:38.392Z,1021.75
2018-01-31T05:17:38.562Z,1021.78
2018-01-31T05:18:38.511Z,1021.74
2018-01-31T05:19:38.509Z,1021.77
2018-01-31T05:20:38.778Z,1021.71
2018-01-31T05:21:38.425Z,1021.78
2018-01-31T05:22:38.403Z,1021.75
2018-01-31T05:23:39.025Z,1021.75
2018-01-31T05:24:38.508Z,1021.71
2018-01-31T05:25:38.447Z,1021.73
2018-01-31T05:26:38.363Z,1021.68
2018-01-31T05:27:38.416Z,1021.69
2018-01-31T05:28:38.574Z,1021.71
2018-01-31T05:29:38.493Z,1021.65
2018-01-31T05:30:38.473Z,1021.64
2018-01-31T05:31:38.526Z,1021.65
2018-01-31T05:32:38.539Z,1021.58
2018-01-31T05:33:38.590Z,1021.63
2018-01-31T05:34:38.403Z,1021.56
2018-01-31T05:35:38.507Z,1021.53
2018-01-31T05:36:38.499Z,1021.5
2018-01-31T05:37:38.500Z,1021.48
2018-01-31T05:38:38.539Z,1021.47
2018-01-31T05:39:38.555Z,1021.44
2018-01-31T05:40:38.496Z,1021.45
2018-01-31T05:41:38.457Z,1021.42
2018-01-31T05:42:38.407Z,1021.48
2018-01-31T05:43:38.607Z,1021.39
2018-01-31T05:44:38.534Z,1021.44
2018-01-31T05:45:38.529Z,1021.43
2018-01-31T05:46:38.486Z,1021.39
2018-01-31T05:47:38.429Z,1021.42
2018-01-31T05:48:38.489Z,1021.38
2018-01-31T05:49:38.424Z,1021.37
2018-01-31T05:50:38.555Z,1021.34
2018-01-31T05:51:38.447Z,1021.33
2018-01-31T05:52:38.487Z,1021.37
2018-01-31T05:53:38.521Z,1021.33
2018-01-31T05:54:38.581Z,1021.27
2018-01-31T05:55:38.518Z,1021.31
2018-01-31T05:56:38.512Z,1021.31
2018-01-31T05:57:38.464Z,1021.29
2018-01-31T05:58:38.436Z,1021.29
2018-01-31T05:59:38.512Z,1021.27
2018-01-31T06:00:38.585Z,1021.21
2018-01-31T06:01:38.535Z,1021.2
2018-01-31T06:02:38.607Z,1021.21
2018-01-31T06:03:38.522Z,1021.16
2018-01-31T06:04:38.546Z,1021.14
2018-01-31T06:05:38.561Z,1021.07
2018-01-31T06:06:38.577Z,1021.11
2018-01-31T06:07:38.570Z,1021.07
2018-01-31T06:08:38.447Z,1021.12
2018-01-31T06:09:38.668Z,1021.03
2018-01-31T06:10:38.564Z,1021.07
2018-01-31T06:11:38.626Z,1021.08
2018-01-31T06:12:38.534Z,1021.01
2018-01-31T06:13:38.563Z,1021
2018-01-31T06:14:38.559Z,1021.04
2018-01-31T06:15:38.508Z,1021.01
2018-01-31T06:16:38.572Z,1021.07
2018-01-31T06:17:38.592Z,1021.01
2018-01-31T06:18:38.591Z,1021.01
2018-01-31T06:19:38.479Z,1021
2018-01-31T06:20:38.676Z,1021
2018-01-31T06:21:38.586Z,1021.08
2018-01-31T06:22:38.495Z,1021.1
2018-01-31T06:23:38.542Z,1021.1
2018-01-31T06:24:38.605Z,1021.07
2018-01-31T06:25:38.675Z,1020.98
2018-01-31T06:26:38.562Z,1021.05
2018-01-31T06:27:38.487Z,1021.03
2018-01-31T06:28:38.536Z,1020.95
2018-01-31T06:29:38.648Z,1020.94
2018-01-31T06:30:38.555Z,1020.94
2018-01-31T06:31:38.482Z,1020.92
2018-01-31T06:32:38.449Z,1020.93
2018-01-31T06:33:38.545Z,1020.96
2018-01-31T06:34:38.567Z,1020.94
2018-01-31T06:35:38.572Z,1020.9
2018-01-31T06:36:38.545Z,1020.92
2018-01-31T06:37:38.604Z,1020.87
2018-01-31T06:38:38.564Z,1020.88
2018-01-31T06:39:38.726Z,1020.88
2018-01-31T06:40:38.605Z,1020.86
2018-01-31T06:41:39.175Z,1020.87
2018-01-31T06:42:38.609Z,1020.91
2018-01-31T06:43:38.584Z,1020.88
2018-01-31T06:44:38.756Z,1020.88
2018-01-31T06:45:38.658Z,1020.89
2018-01-31T06:46:38.707Z,1020.82
2018-01-31T06:47:38.535Z,1020.79
2018-01-31T06:48:38.557Z,1020.77
2018-01-31T06:49:38.681Z,1020.76
2018-01-31T06:50:38.571Z,1020.76
2018-01-31T06:51:38.528Z,1020.77
2018-01-31T06:52:38.596Z,1020.79
2018-01-31T06:53:38.563Z,1020.74
2018-01-31T06:54:38.694Z,1020.75
2018-01-31T06:55:38.566Z,1020.7
2018-01-31T06:56:38.645Z,1020.7
2018-01-31T06:57:38.518Z,1020.66
2018-01-31T06:58:38.550Z,1020.65
2018-01-31T06:59:38.780Z,1020.67
2018-01-31T07:00:38.581Z,1020.65
2018-01-31T07:01:38.508Z,1020.62
2018-01-31T07:02:38.663Z,1020.54
2018-01-31T07:03:38.569Z,1020.51
2018-01-31T07:04:38.515Z,1020.52
2018-01-31T07:05:38.882Z,1020.53
2018-01-31T07:06:38.624Z,1020.45
2018-01-31T07:07:39.341Z,1020.51
2018-01-31T07:08:39.227Z,1020.48
2018-01-31T07:09:39.212Z,1020.5
2018-01-31T07:10:38.589Z,1020.51
2018-01-31T07:11:38.597Z,1020.46
2018-01-31T07:12:38.662Z,1020.47
2018-01-31T07:13:38.889Z,1020.49
2018-01-31T07:14:38.771Z,1020.41
2018-01-31T07:15:38.663Z,1020.45
2018-01-31T07:16:38.721Z,1020.38
2018-01-31T07:17:38.670Z,1020.41
2018-01-31T07:18:38.737Z,1020.42
2018-01-31T07:19:38.833Z,1020.41
2018-01-31T07:20:38.645Z,1020.4
2018-01-31T07:21:38.664Z,1020.38
2018-01-31T07:22:38.651Z,1020.41
2018-01-31T07:23:38.564Z,1020.41
2018-01-31T07:24:39.012Z,1020.37
2018-01-31T07:25:38.586Z,1020.36
2018-01-31T07:26:38.647Z,1020.37
2018-01-31T07:27:39.201Z,1020.32
2018-01-31T07:28:38.864Z,1020.34
2018-01-31T07:29:39.305Z,1020.32
2018-01-31T07:30:39.417Z,1020.32
2018-01-31T07:31:38.552Z,1020.24
2018-01-31T07:32:38.654Z,1020.24
2018-01-31T07:33:38.659Z,1020.25
2018-01-31T07:34:38.691Z,1020.23
2018-01-31T07:35:38.795Z,1020.26
2018-01-31T07:36:38.691Z,1020.22
2018-01-31T07:37:38.633Z,1020.22
2018-01-31T07:38:39.448Z,1020.17
2018-01-31T07:39:38.607Z,1020.21
2018-01-31T07:40:38.655Z,1020.15
2018-01-31T07:41:38.690Z,1020.11
2018-01-31T07:42:38.657Z,1020.1
2018-01-31T07:43:38.868Z,1020.09
2018-01-31T07:44:38.822Z,1020.1
2018-01-31T07:45:38.699Z,1020.04
2018-01-31T07:46:38.753Z,1020.06
2018-01-31T07:47:38.798Z,1020.09
2018-01-31T07:48:38.792Z,1020.03
2018-01-31T07:49:38.741Z,1020.04
2018-01-31T07:50:38.729Z,1020.05
2018-01-31T07:51:38.736Z,1020.05
2018-01-31T07:52:38.713Z,1020.02
2018-01-31T07:53:38.730Z,1020.02
2018-01-31T07:54:38.787Z,1020.02
2018-01-31T07:55:38.734Z,1020.04
2018-01-31T07:56:38.833Z,1020.06
2018-01-31T07:57:38.701Z,1020.01
2018-01-31T07:58:38.785Z,1020.01
2018-01-31T07:59:38.829Z,1020.01
2018-01-31T08:00:38.791Z,1020
2018-01-31T08:01:39.683Z,1019.97
2018-01-31T08:02:38.873Z,1019.95
2018-01-31T08:03:38.779Z,1019.94
2018-01-31T08:04:38.783Z,1019.9
2018-01-31T08:05:38.785Z,1019.88
2018-01-31T08:06:38.776Z,1019.87
2018-01-31T08:07:38.672Z,1019.81
2018-01-31T08:08:38.826Z,1019.81
2018-01-31T08:09:38.668Z,1019.83
2018-01-31T08:10:38.803Z,1019.82
2018-01-31T08:11:38.806Z,1019.83
2018-01-31T08:12:38.722Z,1019.74
2018-01-31T08:13:38.815Z,1019.76
2018-01-31T08:14:38.798Z,1019.74
2018-01-31T08:15:37.798Z,1019.7
2018-01-31T08:16:37.826Z,1019.72
2018-01-31T08:17:37.888Z,1019.69
2018-01-31T08:18:37.879Z,1019.7
2018-01-31T08:19:37.951Z,1019.69
2018-01-31T08:20:37.826Z,1019.65
2018-01-31T08:21:37.769Z,1019.64
2018-01-31T08:22:37.870Z,1019.66
2018-01-31T08:23:37.813Z,1019.61
2018-01-31T08:24:37.894Z,1019.67
2018-01-31T08:25:37.768Z,1019.61
2018-01-31T08:26:37.763Z,1019.62
2018-01-31T08:27:38.530Z,1019.59
2018-01-31T08:28:37.793Z,1019.58
2018-01-31T08:29:37.865Z,1019.59
2018-01-31T08:30:37.779Z,1019.56
2018-01-31T08:31:37.856Z,1019.55
2018-01-31T08:32:37.731Z,1019.5
2018-01-31T08:33:37.880Z,1019.43
2018-01-31T08:34:38.179Z,1019.4
2018-01-31T08:35:37.819Z,1019.41
2018-01-31T08:36:37.847Z,1019.35
2018-01-31T08:37:37.832Z,1019.32
2018-01-31T08:38:37.722Z,1019.33
2018-01-31T08:39:38.117Z,1019.3
2018-01-31T08:40:37.947Z,1019.29
2018-01-31T08:41:37.822Z,1019.31
2018-01-31T08:42:38.049Z,1019.25
2018-01-31T08:43:37.897Z,1019.21
2018-01-31T08:44:37.863Z,1019.2
2018-01-31T08:45:38.243Z,1019.16
2018-01-31T08:46:38.045Z,1019.15
2018-01-31T08:47:38.219Z,1019.13
2018-01-31T08:48:38.166Z,1019.14
2018-01-31T08:49:38.104Z,1019.14
2018-01-31T08:50:38.093Z,1019.17
2018-01-31T08:51:38.153Z,1019.14
2018-01-31T08:52:38.105Z,1019.11
2018-01-31T08:53:38.225Z,1019.05
2018-01-31T08:54:38.150Z,1019.03
2018-01-31T08:55:38.144Z,1019.01
2018-01-31T08:56:38.124Z,1018.94
2018-01-31T08:57:38.538Z,1018.93
2018-01-31T08:58:38.099Z,1018.9
2018-01-31T08:59:38.122Z,1018.81
2018-01-31T09:00:38.149Z,1018.8
2018-01-31T09:01:38.120Z,1018.74
2018-01-31T09:02:38.344Z,1018.75
2018-01-31T09:03:38.169Z,1018.73
2018-01-31T09:04:38.086Z,1018.79
2018-01-31T09:05:38.079Z,1018.74
2018-01-31T09:06:38.154Z,1018.72
2018-01-31T09:07:38.299Z,1018.75
2018-01-31T09:08:38.115Z,1018.75
2018-01-31T09:09:38.051Z,1018.67
2018-01-31T09:10:38.222Z,1018.72
2018-01-31T09:11:38.072Z,1018.67
2018-01-31T09:12:38.913Z,1018.63
2018-01-31T09:13:38.152Z,1018.65
2018-01-31T09:14:38.139Z,1018.64
2018-01-31T09:15:38.249Z,1018.63
2018-01-31T09:16:38.224Z,1018.67
2018-01-31T09:17:38.163Z,1018.68
2018-01-31T09:18:38.148Z,1018.63
2018-01-31T09:19:38.226Z,1018.66
2018-01-31T09:20:38.059Z,1018.66
2018-01-31T09:21:38.515Z,1018.65
2018-01-31T09:22:38.118Z,1018.64
2018-01-31T09:23:38.154Z,1018.64
2018-01-31T09:24:38.174Z,1018.66
2018-01-31T09:25:38.208Z,1018.64
2018-01-31T09:26:38.186Z,1018.61
2018-01-31T09:27:38.280Z,1018.55
2018-01-31T09:28:38.151Z,1018.54
2018-01-31T09:29:38.161Z,1018.66
2018-01-31T09:30:38.202Z,1018.5
2018-01-31T09:31:38.212Z,1018.56
2018-01-31T09:32:38.181Z,1018.5
2018-01-31T09:33:38.146Z,1018.53
2018-01-31T09:34:38.244Z,1018.5
2018-01-31T09:35:38.173Z,1018.48
2018-01-31T09:36:38.129Z,1018.47
2018-01-31T09:37:38.245Z,1018.37
2018-01-31T09:38:38.287Z,1018.32
2018-01-31T09:39:38.135Z,1018.33
2018-01-31T09:40:38.195Z,1018.44
2018-01-31T09:41:38.278Z,1018.35
2018-01-31T09:42:38.128Z,1018.24
2018-01-31T09:43:38.141Z,1018.25
2018-01-31T09:44:38.128Z,1018.28
2018-01-31T09:45:38.503Z,1018.28
2018-01-31T09:46:38.276Z,1018.23
2018-01-31T09:47:38.206Z,1018.15
2018-01-31T09:48:38.276Z,1018.16
2018-01-31T09:49:38.195Z,1018.16
2018-01-31T09:50:38.286Z,1018.18
2018-01-31T09:51:38.125Z,1018.13
2018-01-31T09:52:38.242Z,1018.22
2018-01-31T09:53:38.151Z,1018.12
2018-01-31T09:54:38.113Z,1018.12
2018-01-31T09:55:38.492Z,1018.08
2018-01-31T09:56:38.584Z,1017.97
2018-01-31T09:57:38.276Z,1018.08
2018-01-31T09:58:38.177Z,1017.95
2018-01-31T09:59:38.860Z,1017.97
2018-01-31T10:00:38.158Z,1018
2018-01-31T10:01:38.567Z,1017.99
2018-01-31T10:02:38.217Z,1018.02
2018-01-31T10:03:38.223Z,1017.95
2018-01-31T10:04:38.198Z,1018.04
2018-01-31T10:05:38.161Z,1017.94
2018-01-31T10:06:39.619Z,1017.99
2018-01-31T10:07:38.135Z,1017.98
2018-01-31T10:08:38.167Z,1018.02
2018-01-31T10:09:38.215Z,1018.02
2018-01-31T10:10:38.152Z,1018.01
2018-01-31T10:11:38.244Z,1018.01
2018-01-31T10:12:38.268Z,1018.01
2018-01-31T10:13:38.257Z,1017.92
2018-01-31T10:14:38.328Z,1017.9
2018-01-31T10:15:38.319Z,1017.91
2018-01-31T10:16:38.224Z,1017.97
2018-01-31T10:17:38.193Z,1017.88
2018-01-31T10:18:38.178Z,1017.95
2018-01-31T10:19:38.531Z,1017.95
2018-01-31T10:20:38.241Z,1017.9
2018-01-31T10:21:38.255Z,1017.89
2018-01-31T10:22:38.368Z,1017.86
2018-01-31T10:23:38.371Z,1017.86
2018-01-31T10:24:38.981Z,1017.85
2018-01-31T10:25:38.272Z,1017.9
2018-01-31T10:26:38.322Z,1017.86
2018-01-31T10:27:38.381Z,1017.8
2018-01-31T10:28:38.334Z,1017.82
2018-01-31T10:29:38.744Z,1017.8
2018-01-31T10:30:38.257Z,1017.69
2018-01-31T10:31:38.238Z,1017.67
2018-01-31T10:32:38.219Z,1017.64
2018-01-31T10:33:38.253Z,1017.63
2018-01-31T10:34:38.234Z,1017.58
2018-01-31T10:35:38.288Z,1017.64
2018-01-31T10:36:38.270Z,1017.52
2018-01-31T10:37:38.494Z,1017.56
2018-01-31T10:38:38.226Z,1017.54
2018-01-31T10:39:38.351Z,1017.52
2018-01-31T10:40:38.268Z,1017.51
2018-01-31T10:41:38.352Z,1017.54
2018-01-31T10:42:38.593Z,1017.44
2018-01-31T10:43:38.593Z,1017.5
2018-01-31T10:44:38.338Z,1017.4
2018-01-31T10:45:38.435Z,1017.39
2018-01-31T10:46:38.361Z,1017.31
2018-01-31T10:47:38.332Z,1017.36
2018-01-31T10:48:38.411Z,1017.32
2018-01-31T10:49:38.437Z,1017.3
2018-01-31T10:50:38.417Z,1017.18
2018-01-31T10:51:38.324Z,1017.13
2018-01-31T10:52:38.344Z,1017.08
2018-01-31T10:57:38.419Z,1016.95
2018-01-31T10:58:38.496Z,1016.92
2018-01-31T10:59:38.486Z,1016.93
2018-01-31T11:00:38.413Z,1016.9
2018-01-31T11:01:38.349Z,1016.99
2018-01-31T11:02:38.471Z,1016.97
2018-01-31T11:03:38.555Z,1016.97
2018-01-31T11:04:38.428Z,1016.98
2018-01-31T11:05:38.413Z,1016.93
2018-01-31T11:06:38.441Z,1016.87
2018-01-31T11:07:38.481Z,1016.84
2018-01-31T11:08:39.205Z,1016.78
2018-01-31T11:09:38.506Z,1016.68
2018-01-31T11:10:38.368Z,1016.67
2018-01-31T11:11:38.522Z,1016.58
2018-01-31T11:12:38.416Z,1016.48
2018-01-31T11:13:38.473Z,1016.51
2018-01-31T11:14:38.451Z,1016.46
2018-01-31T11:15:38.776Z,1016.4
2018-01-31T11:16:38.634Z,1016.38
2018-01-31T11:17:38.886Z,1016.25
2018-01-31T11:18:38.736Z,1016.23
2018-01-31T11:19:38.698Z,1016.24
2018-01-31T11:20:38.640Z,1016.13
2018-01-31T11:21:38.632Z,1016.08
2018-01-31T11:22:38.913Z,1016.05
2018-01-31T11:23:38.635Z,1016.01
2018-01-31T11:24:38.628Z,1015.9
2018-01-31T11:25:38.643Z,1015.86
2018-01-31T11:26:38.726Z,1015.97
2018-01-31T11:27:38.810Z,1015.85
2018-01-31T11:28:38.645Z,1015.79
2018-01-31T11:29:38.944Z,1015.81
2018-01-31T11:30:38.832Z,1015.85
2018-01-31T11:31:38.682Z,1015.98
2018-01-31T11:32:38.715Z,1015.97
2018-01-31T11:33:38.772Z,1016.01
2018-01-31T11:34:38.819Z,1015.97
2018-01-31T11:35:38.716Z,1015.95
2018-01-31T11:36:38.771Z,1016.04
2018-01-31T11:37:38.637Z,1015.92
2018-01-31T11:38:38.722Z,1015.98
2018-01-31T11:39:38.694Z,1015.95
2018-01-31T11:40:38.722Z,1015.89
2018-01-31T11:41:38.732Z,1015.91
2018-01-31T11:42:38.382Z,1015.8
2018-01-31T11:43:38.764Z,1015.82
2018-01-31T11:44:38.705Z,1015.8
2018-01-31T11:45:38.770Z,1015.73
2018-01-31T11:46:38.676Z,1015.72
2018-01-31T11:47:38.826Z,1015.6
2018-01-31T11:48:38.778Z,1015.56
2018-01-31T11:49:38.720Z,1015.58
2018-01-31T11:50:38.695Z,1015.55
2018-01-31T11:51:38.780Z,1015.5
2018-01-31T11:52:38.993Z,1015.54
2018-01-31T11:53:38.781Z,1015.46
2018-01-31T11:54:38.801Z,1015.42
2018-01-31T11:55:38.798Z,1015.34
2018-01-31T11:56:38.802Z,1015.26
2018-01-31T11:57:38.923Z,1015.26
2018-01-31T11:58:38.742Z,1015.17
2018-01-31T11:59:40.272Z,1015.08
2018-01-31T12:00:38.776Z,1015.14
2018-01-31T12:01:38.658Z,1015.08
2018-01-31T12:02:38.685Z,1015.05
2018-01-31T12:03:38.688Z,1015.04
2018-01-31T12:04:38.858Z,1014.9
2018-01-31T12:05:38.682Z,1014.92
2018-01-31T12:06:38.653Z,1014.98
2018-01-31T12:07:38.675Z,1014.92
2018-01-31T12:08:38.769Z,1014.84
2018-01-31T12:09:38.807Z,1014.89
2018-01-31T12:10:38.704Z,1014.77
2018-01-31T12:11:38.757Z,1014.81
2018-01-31T12:12:38.770Z,1014.76
2018-01-31T12:13:38.751Z,1014.77
2018-01-31T12:14:38.758Z,1014.73
2018-01-31T12:15:38.970Z,1014.73
2018-01-31T12:16:38.067Z,1014.75
2018-01-31T12:17:37.942Z,1014.75
2018-01-31T12:18:37.914Z,1014.81
2018-01-31T12:19:37.925Z,1014.75
2018-01-31T12:20:37.921Z,1014.83
2018-01-31T12:21:37.918Z,1014.84
2018-01-31T12:22:37.844Z,1014.86
2018-01-31T12:23:38.033Z,1014.81
2018-01-31T12:24:38.049Z,1014.76
2018-01-31T12:25:37.930Z,1014.67
2018-01-31T12:26:37.929Z,1014.63
2018-01-31T12:27:38.006Z,1014.62
2018-01-31T12:28:37.945Z,1014.62
2018-01-31T12:29:37.907Z,1014.59
2018-01-31T12:30:37.930Z,1014.62
2018-01-31T12:31:37.937Z,1014.58
2018-01-31T12:32:38.457Z,1014.6
2018-01-31T12:33:37.848Z,1014.59
2018-01-31T12:34:37.962Z,1014.6
2018-01-31T12:35:37.911Z,1014.58
2018-01-31T12:36:37.831Z,1014.55
2018-01-31T12:37:37.927Z,1014.48
2018-01-31T12:38:37.949Z,1014.45
2018-01-31T12:39:38.184Z,1014.48
2018-01-31T12:40:37.856Z,1014.46
2018-01-31T12:41:37.914Z,1014.37
2018-01-31T12:42:37.910Z,1014.41
2018-01-31T12:43:37.918Z,1014.43
2018-01-31T12:44:38.181Z,1014.24
2018-01-31T12:45:37.835Z,1014.34
2018-01-31T12:46:38.125Z,1014.22
2018-01-31T12:47:38.069Z,1014.33
2018-01-31T12:48:37.982Z,1014.25
2018-01-31T12:49:37.946Z,1014.3
2018-01-31T12:50:38.044Z,1014.23
2018-01-31T12:51:38.048Z,1014.22
2018-01-31T12:52:38.058Z,1014.14
2018-01-31T12:53:38.182Z,1014.14
2018-01-31T12:54:38.106Z,1014.09
2018-01-31T12:55:37.998Z,1014.08
2018-01-31T12:56:37.988Z,1013.99
2018-01-31T12:57:38.192Z,1013.9
2018-01-31T12:58:38.314Z,1013.91
2018-01-31T12:59:38.040Z,1013.87
2018-01-31T13:00:38.020Z,1013.86
2018-01-31T13:01:38.089Z,1013.82
2018-01-31T13:02:38.097Z,1013.75
2018-01-31T13:03:38.115Z,1013.72
2018-01-31T13:04:38.051Z,1013.62
2018-01-31T13:05:38.090Z,1013.7
2018-01-31T13:06:37.931Z,1013.63
2018-01-31T13:07:37.934Z,1013.65
2018-01-31T13:08:38.258Z,1013.63
2018-01-31T13:09:38.054Z,1013.58
2018-01-31T13:10:38.126Z,1013.64
2018-01-31T13:11:38.025Z,1013.63
2018-01-31T13:12:37.948Z,1013.5
2018-01-31T13:13:37.977Z,1013.49
2018-01-31T13:14:38.078Z,1013.49
2018-01-31T13:15:37.983Z,1013.46
2018-01-31T13:16:38.356Z,1013.41
2018-01-31T13:17:38.374Z,1013.43
2018-01-31T13:18:38.534Z,1013.4
2018-01-31T13:19:38.667Z,1013.39
2018-01-31T13:20:38.403Z,1013.37
2018-01-31T13:21:38.369Z,1013.32
2018-01-31T13:22:38.376Z,1013.28
2018-01-31T13:23:38.331Z,1013.25
2018-01-31T13:24:38.811Z,1013.24
2018-01-31T13:25:39.654Z,1013.22
2018-01-31T13:26:38.602Z,1013.25
2018-01-31T13:27:38.415Z,1013.29
2018-01-31T13:28:38.432Z,1013.19
2018-01-31T13:29:38.336Z,1013.11
2018-01-31T13:30:39.322Z,1013.15
2018-01-31T13:31:38.393Z,1013.06
2018-01-31T13:32:38.425Z,1013.11
2018-01-31T13:33:38.452Z,1013.08
2018-01-31T13:34:38.381Z,1013.05
2018-01-31T13:35:38.392Z,1012.88
2018-01-31T13:36:38.338Z,1012.91
2018-01-31T13:37:38.471Z,1012.86
2018-01-31T13:38:38.350Z,1012.82
2018-01-31T13:39:38.336Z,1012.82
2018-01-31T13:40:38.390Z,1012.73
2018-01-31T13:41:38.422Z,1012.73
2018-01-31T13:42:38.548Z,1012.61
2018-01-31T13:43:38.538Z,1012.61
2018-01-31T13:44:38.434Z,1012.57
2018-01-31T13:45:38.374Z,1012.53
2018-01-31T13:46:38.538Z,1012.48
2018-01-31T13:47:38.513Z,1012.43
2018-01-31T13:48:38.552Z,1012.45
2018-01-31T13:49:38.488Z,1012.45
2018-01-31T13:50:38.591Z,1012.42
2018-01-31T13:51:38.438Z,1012.39
2018-01-31T13:52:38.492Z,1012.33
2018-01-31T13:53:38.468Z,1012.25
2018-01-31T13:54:38.428Z,1012.28
2018-01-31T13:55:38.527Z,1012.27
2018-01-31T13:56:38.385Z,1012.31
2018-01-31T13:57:38.458Z,1012.3
2018-01-31T13:58:38.376Z,1012.21
2018-01-31T13:59:38.426Z,1012.15
2018-01-31T14:00:38.432Z,1012.07
2018-01-31T14:01:38.416Z,1012.04
2018-01-31T14:02:38.393Z,1012.09
2018-01-31T14:03:38.567Z,1012.01
2018-01-31T14:04:38.708Z,1011.97